Flight Track Log - Related Links

Times and Time Zones

All times are in EDT time to prevent confusion due to time zone crossing. See the CTA400 flight status page for this flight to view local times or setup timezone preferences in your user account.

Time Position Orientation Groundspeed Altitude Reporting Facility
EDT Latitude Longitude Course Direction KTS MPH feet Rate Location/Type
Wed 08:13:22 AM 32.9667 -96.8333 157° South 105 121 1,100  Level Dallas / Fort Worth TRACON
Wed 08:14:29 AM 32.9333 -96.8167 157° South 114 131 2,800 1,370 Climbing Dallas / Fort Worth TRACON
Wed 08:15:29 AM 32.9167 -96.8500 239° Southwest 151 174 4,000 655 Climbing Dallas / Fort Worth TRACON
Wed 08:16:28 AM 32.9167 -96.9000 270° West 184 212 4,100 50 Climbing Dallas / Fort Worth TRACON
Wed 08:17:29 AM 32.9167 -96.9667 270° West 194 223 4,100  Level Dallas / Fort Worth TRACON
Wed 08:18:28 AM 32.9000 -97.0333 253° West 193 222 4,100  Level Dallas / Fort Worth TRACON
Wed 08:19:28 AM 32.9000 -97.0833 270° West 190 219 4,100  Level Dallas / Fort Worth TRACON
Wed 08:20:28 AM 32.9167 -97.1500 287° West 203 234 4,100 450 Level Dallas / Fort Worth TRACON
Wed 08:21:28 AM 32.9333 -97.2167 287° West 174 200 5,000 950 Climbing Dallas / Fort Worth TRACON
Wed 08:22:28 AM 32.9500 -97.2667 292° West 151 174 6,000 750 Climbing Dallas / Fort Worth TRACON
Wed 08:23:28 AM 32.9500 -97.3167 270° West 169 194 6,500 750 Climbing Dallas / Fort Worth TRACON
Wed 08:24:04 AM 32.9522 -97.3467 275° West 151 174 7,200 875 Climbing Fort Worth Center
Wed 08:25:04 AM 32.9608 -97.3861 285° West 144 166 7,900 650 Climbing Fort Worth Center
Wed 08:26:04 AM 32.9692 -97.4381 281° West 144 166 8,500 400 Climbing Fort Worth Center
Wed 08:27:04 AM 32.9753 -97.4853 279° West 158 182 8,700 100 Climbing Fort Worth Center
Wed 08:28:04 AM 32.9794 -97.5497 274° West 173 199 8,700 -50 Level Fort Worth Center
Wed 08:29:04 AM 32.9856 -97.6042 278° West 179 206 8,600 -50 Descending Fort Worth Center
Wed 08:30:04 AM 32.9917 -97.6636 277° West 184 212 8,600  Level Fort Worth Center
Wed 08:31:04 AM 33.0000 -97.7306 278° West 184 212 8,600  Level Fort Worth Center
Wed 08:32:04 AM 33.0122 -97.7825 286° West 179 206 8,600 50 Level Fort Worth Center
Wed 08:33:04 AM 33.0350 -97.8447 294° West 184 212 8,700 50 Climbing Fort Worth Center
Wed 08:34:04 AM 33.0475 -97.8942 287° West 189 217 8,700  Level Fort Worth Center
Wed 08:35:04 AM 33.0575 -97.9586 281° West 183 211 8,700 -50 Level Fort Worth Center
Wed 08:36:04 AM 33.0742 -98.0133 290° West 183 211 8,600 -50 Descending Fort Worth Center
Wed 08:37:04 AM 33.0883 -98.0778 285° West 183 211 8,600  Level Fort Worth Center
Wed 08:38:04 AM 33.0986 -98.1275 284° West 183 211 8,600 50 Level Fort Worth Center
Wed 08:39:04 AM 33.1147 -98.1947 286° West 183 211 8,700  Climbing Fort Worth Center
Wed 08:40:04 AM 33.1250 -98.2469 283° West 183 211 8,600 -50 Descending Fort Worth Center
Wed 08:41:04 AM 33.1369 -98.3089 283° West 183 211 8,600  Level Fort Worth Center
Wed 08:42:04 AM 33.1450 -98.3636 280° West 183 211 8,600  Level Fort Worth Center
Wed 08:43:04 AM 33.1569 -98.4258 283° West 183 211 8,600 50 Level Fort Worth Center
Wed 08:44:04 AM 33.1692 -98.4781 286° West 183 211 8,700 50 Climbing Fort Worth Center
Wed 08:45:04 AM 33.1831 -98.5378 286° West 183 211 8,700  Level Fort Worth Center
Wed 08:46:04 AM 33.2036 -98.5953 293° West 183 211 8,700 -50 Level Fort Worth Center
Wed 08:47:04 AM 33.2133 -98.6525 281° West 183 211 8,600 -50 Descending Fort Worth Center
Wed 08:48:04 AM 33.2233 -98.7097 282° West 183 211 8,600  Level Fort Worth Center
Wed 08:49:04 AM 33.2394 -98.7669 289° West 183 211 8,600 50 Level Fort Worth Center
Wed 08:50:05 AM 33.2553 -98.8244 288° West 183 211 8,700 50 Climbing Fort Worth Center
Wed 08:51:04 AM 33.2672 -98.8817 284° West 183 211 8,700 -50 Level Fort Worth Center
Wed 08:52:04 AM 33.2894 -98.9442 293° West 183 211 8,600  Descending Fort Worth Center
Wed 08:53:04 AM 33.2992 -99.0017 281° West 183 211 8,700 50 Climbing Fort Worth Center
Wed 08:54:04 AM 33.3131 -99.0517 288° West 183 211 8,700 -50 Level Fort Worth Center
Wed 08:55:04 AM 33.3186 -99.1114 276° West 177 204 8,600 -100 Descending Fort Worth Center
Wed 08:56:04 AM 33.3344 -99.1664 289° West 183 211 8,500  Descending Fort Worth Center
Wed 08:57:04 AM 33.3422 -99.2211 280° West 183 211 8,600 100 Climbing Fort Worth Center
Wed 08:58:04 AM 33.3517 -99.2786 281° West 176 203 8,700 50 Climbing Fort Worth Center
Wed 08:59:04 AM 33.3633 -99.3311 285° West 181 208 8,700 -50 Level Fort Worth Center
Wed 09:00:04 AM 33.3750 -99.3886 284° West 181 208 8,600 -150 Descending Fort Worth Center
Wed 09:01:04 AM 33.3847 -99.4461 281° West 181 208 8,400 -50 Descending Fort Worth Center
Wed 09:02:04 AM 33.3961 -99.5008 284° West 181 208 8,500 100 Climbing Fort Worth Center
Wed 09:03:04 AM 33.4078 -99.5558 284° West 181 208 8,600 50 Climbing Fort Worth Center
Wed 09:04:04 AM 33.4172 -99.6108 282° West 181 208 8,600 -50 Level Fort Worth Center
Wed 09:05:04 AM 33.4289 -99.6686 284° West 181 208 8,500 -50 Descending Fort Worth Center
Wed 09:06:04 AM 33.4383 -99.7236 282° West 181 208 8,500 -50 Level Fort Worth Center
Wed 09:07:04 AM 33.4517 -99.7786 286° West 181 208 8,400 -50 Descending Fort Worth Center
Wed 09:08:04 AM 33.4611 -99.8336 282° West 181 208 8,400 100 Level Fort Worth Center
Wed 09:09:04 AM 33.4706 -99.8861 282° West 181 208 8,600 150 Climbing Fort Worth Center
Wed 09:10:04 AM 33.4800 -99.9411 282° West 176 203 8,700  Climbing Fort Worth Center
Wed 09:11:04 AM 33.4892 -99.9989 281° West 176 203 8,600 -100 Descending Fort Worth Center
Wed 09:12:04 AM 33.5006 -100.0539 284° West 171 197 8,500 -150 Descending Fort Worth Center
Wed 09:13:04 AM 33.5139 -100.1092 286° West 171 197 8,300 -50 Descending Fort Worth Center
Wed 09:14:04 AM 33.5275 -100.1619 287° West 171 197 8,400 150 Climbing Fort Worth Center
Wed 09:15:04 AM 33.5325 -100.2144 277° West 165 190 8,600 100 Climbing Fort Worth Center
Wed 09:16:04 AM 33.5397 -100.2694 279° West 165 190 8,600  Level Fort Worth Center
Wed 09:17:04 AM 33.5444 -100.3294 275° West 165 190 8,600 100 Level Fort Worth Center
Wed 09:18:04 AM 33.5475 -100.3844 274° West 171 197 8,800 -50 Climbing Fort Worth Center
Wed 09:19:04 AM 33.5503 -100.4417 273° West 177 204 8,500 -200 Descending Fort Worth Center
Wed 09:20:04 AM 33.5575 -100.4894 280° West 169 194 8,400 -500 Descending Fort Worth Center
Wed 09:21:04 AM 33.5603 -100.5367 274° West 156 180 7,500 -250 Descending Fort Worth Center
Wed 09:22:04 AM 33.5694 -100.5944 281° West 161 185 7,900 400 Climbing Fort Worth Center
Wed 09:23:04 AM 33.5700 -100.6494 271° West 161 185 8,300 298 Climbing Fort Worth Center
Wed 09:24:05 AM 33.5767 -100.7144 277° West 169 194 8,500 141 Climbing Fort Worth Center
Wed 09:24:29 AM 33.5742 -100.7342 261° West 174 200 8,500 111 Level Fort Worth Center
Wed 09:24:59 AM 33.5775 -100.7667 277° West 174 200 8,600  Climbing Fort Worth Center
Wed 09:26:00 AM 33.5800 -100.8267 273° West 179 206 8,500 -48 Descending Fort Worth Center
Wed 09:27:04 AM 33.5911 -100.8819 284° West 176 203 8,500 -50 Level Fort Worth Center
Wed 09:28:01 AM 33.5936 -100.9394 273° West 165 190 8,400  Descending Fort Worth Center
Wed 09:29:04 AM 33.6106 -100.9975 289° West 176 203 8,500 -103 Climbing Fort Worth Center
Wed 09:29:57 AM 33.6197 -101.0453 283° West 174 200 8,200 -478 Descending Fort Worth Center
Wed 09:30:57 AM 33.6328 -101.1031 285° West 176 203 7,600 -550 Descending Fort Worth Center
Wed 09:31:57 AM 33.6350 -101.1606 273° West 176 203 7,100 -496 Descending Fort Worth Center
Wed 09:32:58 AM 33.6333 -101.2203 268° West 181 208 6,600 -446 Descending Fort Worth Center
Wed 09:33:58 AM 33.6314 -101.2828 268° West 184 212 6,200 -446 Descending Fort Worth Center
Wed 09:34:59 AM 33.6336 -101.3453 272° West 187 215 5,700 -344 Descending Fort Worth Center
Wed 09:36:00 AM 33.6294 -101.4097 266° West 194 223 5,500 -209 Descending Fort Worth Center
Wed 09:36:54 AM 33.6275 -101.4697 268° West 199 229 5,300 -104 Descending Fort Worth Center
Wed 09:37:55 AM 33.6317 -101.5347 274° West 193 222 5,300  Level Fort Worth Center
Wed 09:38:55 AM 33.6317 -101.5994 270° West 189 217 5,300  Level Fort Worth Center
Wed 09:39:56 AM 33.6317 -101.6594 270° West 189 217 5,300  Level Fort Worth Center
Wed 09:40:57 AM 33.6336 -101.7242 272° West 190 219 5,300 -236 Level Fort Worth Center
Wed 09:42:03 AM 33.6372 -101.8019 273° West 195 224 4,800 -378 Descending Fort Worth Center
Wed 09:43:04 AM 33.6311 -101.8564 262° West 166 191 4,500 -443 Descending Fort Worth Center
Wed 09:44:05 AM 33.6581 -101.8628 349° North 103 119 3,900 -590 Descending Fort Worth Center
Wed 09:46:00 AM 33.6637 -101.8206 81° East  Level Estimated
Wed 09:53:00 AM 33.6637 -101.8206 132° Southeast  Level Estimated
Wed 09:54:00 AM 33.6637 -101.8206 132° Southeast  Level Estimated

Login

Don't have an account? Register now (free) for customized features, flight alerts, and more!